Terminal Aerodrome Forecast
Issued by NWS Cleveland, OH

Home | Current Version | Previous Version | Graphics & Text | Print | Product List | Glossary On
Versions: 1 2 3 4 5 6 7 8 9 10 11 12 13
000
FTUS41 KCLE 012330
TAFERI
TAF
KERI 012330Z 0200/0224 26010KT P6SM BKN070
     FM020400 28004KT P6SM BKN035
     FM020900 VRB03KT 5SM BR BKN020
     FM021400 01007KT P6SM BKN035
     FM021700 01007KT P6SM SCT035=

USA.gov is the U.S. government's official web portal to all federal, state and local government web resources and services.